Time;durP1;ratioP1;P1;durP2;ratioP2;P2;SDS_P1;SDS_P2;PMS_P1;PMS_P2;Temp;Humidity;BMP_temperature;BMP_pressure;BME280_temperature;BME280_humidity;BME280_pressure;Samples;Min_cycle;Max_cycle;Signal;HPM_P1;HPM_P2
2024/04/12 00:01:18;;;;;;;15.33;14.20;;;14.20;59.40;;;;;;5523837;26;20464;-64
2024/04/12 00:03:48;;;;;;;16.33;15.07;;;14.20;57.30;;;;;;5525317;25;20869;-64
2024/04/12 00:06:17;;;;;;;14.90;14.00;;;14.20;58.10;;;;;;5506308;25;20517;-65
2024/04/12 00:08:48;;;;;;;17.20;16.00;;;14.20;63.20;;;;;;5488635;26;20521;-65
2024/04/12 00:11:16;;;;;;;12.40;11.50;;;14.20;63.50;;;;;;5507394;26;20927;-65
2024/04/12 00:13:45;;;;;;;12.20;11.30;;;14.20;56.50;;;;;;5525286;25;20468;-65
2024/04/12 00:16:17;;;;;;;13.20;12.17;;;14.20;56.50;;;;;;5525347;25;20578;-65
2024/04/12 00:18:47;;;;;;;16.13;14.97;;;14.20;56.60;;;;;;5525373;25;20465;-65
2024/04/12 00:21:14;;;;;;;17.57;16.40;;;14.20;59.20;;;;;;5524624;25;20563;-65
2024/04/12 00:23:43;;;;;;;15.50;14.33;;;14.20;59.00;;;;;;5524913;25;20534;-65
2024/04/12 00:26:11;;;;;;;14.17;13.27;;;14.20;58.20;;;;;;5525116;25;20940;-65
2024/04/12 00:28:40;;;;;;;14.07;13.17;;;14.20;56.80;;;;;;5525048;25;20452;-65
2024/04/12 00:31:06;;;;;;;14.07;12.67;;;14.30;56.60;;;;;;5507141;25;20511;-65
2024/04/12 00:33:40;;;;;;;14.70;13.60;;;14.30;56.90;;;;;;5496348;26;20506;-65
2024/04/12 00:36:08;;;;;;;17.30;16.20;;;14.30;56.80;;;;;;5487991;26;20521;-65
2024/04/12 00:38:38;;;;;;;17.20;16.10;;;14.30;59.70;;;;;;5487930;26;20605;-65
2024/04/12 00:41:11;;;;;;;17.40;16.10;;;14.30;58.80;;;;;;5489270;26;20462;-65
2024/04/12 00:43:45;;;;;;;16.93;15.53;;;14.20;58.80;;;;;;5524858;25;20519;-65
2024/04/12 00:46:17;;;;;;;15.40;14.40;;;14.20;57.20;;;;;;5524853;25;20509;-64
2024/04/12 00:48:51;;;;;;;17.37;16.17;;;14.20;57.00;;;;;;5524954;25;20512;-65
2024/04/12 00:51:18;;;;;;;20.07;18.80;;;14.20;61.80;;;;;;5524264;25;20606;-65
2024/04/12 00:53:49;;;;;;;21.73;19.50;;;14.20;65.00;;;;;;5497097;25;20520;-65
2024/04/12 00:56:15;;;;;;;21.00;19.80;;;14.20;61.50;;;;;;5522787;26;20480;-65
2024/04/12 00:58:47;;;;;;;19.50;18.00;;;14.20;63.50;;;;;;5523714;25;20465;-64
2024/04/12 01:01:15;;;;;;;16.90;15.90;;;14.20;63.10;;;;;;5523221;25;20460;-65
2024/04/12 01:03:49;;;;;;;20.70;19.07;;;14.20;61.60;;;;;;5524220;25;20460;-65
2024/04/12 01:06:21;;;;;;;18.97;17.87;;;14.20;60.00;;;;;;5489497;25;20515;-65
2024/04/12 01:08:51;;;;;;;20.67;19.40;;;14.20;63.80;;;;;;5515713;26;21122;-65
2024/04/12 01:11:19;;;;;;;19.77;18.50;;;14.20;63.70;;;;;;5503630;25;20461;-65
2024/04/12 01:13:48;;;;;;;20.30;19.00;;;14.20;60.20;;;;;;5487230;26;20869;-65
2024/04/12 01:16:14;;;;;;;21.53;20.30;;;14.20;62.30;;;;;;5487700;26;20849;-65
2024/04/12 01:18:43;;;;;;;23.37;21.70;;;14.20;63.90;;;;;;5498398;26;20456;-65
2024/04/12 01:21:10;;;;;;;25.23;23.73;;;14.20;64.50;;;;;;5523458;25;20509;-65
2024/04/12 01:23:48;;;;;;;24.90;23.60;;;14.10;64.50;;;;;;5524153;25;20527;-65
2024/04/12 01:26:17;;;;;;;22.23;21.03;;;14.10;64.60;;;;;;5523875;25;20472;-65
2024/04/12 01:28:48;;;;;;;25.73;23.87;;;14.20;64.50;;;;;;5524080;25;20602;-65
2024/04/12 01:31:15;;;;;;;28.20;26.50;;;14.20;64.70;;;;;;5488988;25;20518;-65
2024/04/12 01:33:48;;;;;;;26.50;24.90;;;14.10;64.60;;;;;;5487145;26;21072;-65
2024/04/12 01:36:17;;;;;;;28.03;25.53;;;14.20;64.70;;;;;;5517586;26;20554;-65
2024/04/12 01:38:53;;;;;;;25.10;23.70;;;14.20;64.60;;;;;;5486931;26;20470;-65
2024/04/12 01:41:22;;;;;;;26.03;24.70;;;14.20;64.70;;;;;;5486449;26;20595;-65
2024/04/12 01:43:52;;;;;;;28.17;26.70;;;14.20;64.70;;;;;;5514826;26;21007;-65
2024/04/12 01:46:21;;;;;;;28.57;27.17;;;14.20;64.80;;;;;;5523775;25;20512;-65
2024/04/12 01:48:50;;;;;;;39.67;37.80;;;14.20;64.80;;;;;;5523726;25;20499;-64
2024/04/12 01:51:16;;;;;;;32.57;30.97;;;14.20;64.80;;;;;;5507578;25;20501;-65
2024/04/12 01:53:45;;;;;;;31.77;30.17;;;14.10;64.70;;;;;;5517022;25;20528;-65
2024/04/12 01:56:13;;;;;;;35.50;33.70;;;14.10;64.70;;;;;;5521358;25;20910;-65
2024/04/12 01:58:45;;;;;;;39.27;37.50;;;14.10;64.70;;;;;;5508296;25;20883;-65
2024/04/12 02:01:11;;;;;;;42.47;40.47;;;14.10;64.70;;;;;;5516267;25;20554;-65
2024/04/12 02:03:40;;;;;;;45.70;43.77;;;14.10;64.70;;;;;;5523067;25;20512;-65
2024/04/12 02:06:06;;;;;;;51.90;49.50;;;14.10;64.70;;;;;;5527036;25;20498;-65
2024/04/12 02:08:35;;;;;;;56.30;53.70;;;14.10;64.70;;;;;;5512057;25;20570;-65
2024/04/12 02:11:05;;;;;;;52.17;49.97;;;14.10;64.70;;;;;;5526703;25;20494;-65
2024/04/12 02:13:38;;;;;;;65.10;62.10;;;14.10;64.70;;;;;;5527076;25;20468;-65
2024/04/12 02:16:10;;;;;;;76.30;73.37;;;14.10;64.70;;;;;;5520562;25;20463;-65
2024/04/12 02:18:42;;;;;;;67.77;64.97;;;14.10;64.70;;;;;;5527318;25;20516;-65
2024/04/12 02:21:10;;;;;;;65.53;62.77;;;14.10;64.70;;;;;;5524366;25;20460;-65
2024/04/12 02:23:41;;;;;;;79.47;76.27;;;14.10;64.70;;;;;;5489966;26;20551;-65
2024/04/12 02:26:09;;;;;;;78.13;75.07;;;14.10;64.70;;;;;;5490212;26;20498;-64
2024/04/12 02:28:40;;;;;;;92.83;89.37;;;14.10;64.70;;;;;;5499397;26;20509;-65
2024/04/12 02:31:08;;;;;;;97.67;93.80;;;14.10;64.80;;;;;;5526025;25;20468;-65
2024/04/12 02:33:38;;;;;;;99.87;96.07;;;14.10;64.70;;;;;;5526718;25;20816;-65
2024/04/12 02:36:11;;;;;;;111.87;107.67;;;14.00;64.70;;;;;;5526847;25;20476;-65
2024/04/12 02:38:40;;;;;;;117.60;113.40;;;14.00;64.70;;;;;;5516973;25;20470;-65
2024/04/12 02:41:06;;;;;;;113.33;108.87;;;14.00;68.30;;;;;;5508557;25;20586;-65
2024/04/12 02:43:35;;;;;;;119.33;115.17;;;14.00;68.10;;;;;;5489837;26;20474;-65
2024/04/12 02:46:01;;;;;;;140.93;135.97;;;14.10;65.00;;;;;;5521021;26;20513;-65
2024/04/12 02:48:33;;;;;;;145.93;140.87;;;14.00;72.40;;;;;;5519278;25;20458;-65
2024/04/12 02:51:03;;;;;;;165.63;159.57;;;14.10;72.10;;;;;;5519837;26;20468;-65
2024/04/12 02:53:36;;;;;;;151.30;146.17;;;14.00;72.70;;;;;;5526801;25;20464;-65
2024/04/12 02:56:03;;;;;;;154.77;149.37;;;14.00;72.60;;;;;;5526905;25;20503;-65
2024/04/12 02:58:38;;;;;;;156.23;150.67;;;14.00;73.50;;;;;;5526678;25;20887;-65
2024/04/12 03:01:04;;;;;;;167.40;161.33;;;14.00;72.70;;;;;;5524035;25;20999;-65
2024/04/12 03:03:36;;;;;;;181.80;175.50;;;14.00;74.00;;;;;;5489530;26;20524;-65
2024/04/12 03:06:03;;;;;;;199.13;191.93;;;14.00;76.30;;;;;;5505758;26;20461;-65
2024/04/12 03:08:32;;;;;;;194.50;187.50;;;13.90;79.40;;;;;;5526390;25;20998;-65
2024/04/12 03:11:13;;;;;;;195.27;188.27;;;13.90;80.20;;;;;;5510401;25;20522;-64
2024/04/12 03:13:43;;;;;;;198.60;191.87;;;14.00;80.20;;;;;;5489443;26;20517;-64
2024/04/12 03:16:14;;;;;;;224.80;217.07;;;13.90;80.30;;;;;;5490605;26;20492;-63
2024/04/12 03:18:51;;;;;;;249.23;240.53;;;13.90;80.40;;;;;;5501442;26;20508;-65
2024/04/12 03:21:20;;;;;;;236.83;228.43;;;13.90;80.50;;;;;;5521181;25;21059;-65
2024/04/12 03:23:49;;;;;;;246.50;237.67;;;13.90;80.50;;;;;;5489408;26;20583;-65
2024/04/12 03:26:16;;;;;;;277.30;267.57;;;14.00;80.50;;;;;;5509886;26;20448;-65
2024/04/12 03:28:49;;;;;;;300.73;289.57;;;13.80;80.40;;;;;;5526713;25;20464;-65
2024/04/12 03:31:15;;;;;;;317.07;305.17;;;13.80;80.40;;;;;;5516878;25;20512;-65
2024/04/12 03:33:47;;;;;;;320.90;308.23;;;13.80;81.20;;;;;;5525766;25;20555;-65
2024/04/12 03:36:26;;;;;;;350.13;336.60;;;13.70;81.50;;;;;;5506727;25;20465;-65
2024/04/12 03:39:24;;;;;;;362.63;348.53;;;13.70;88.10;;;;;;5489459;26;20473;-65
2024/04/12 03:41:44;;;;;;;373.20;358.43;;;13.70;91.20;;;;;;5488281;26;20510;-65
2024/04/12 03:44:13;;;;;;;386.83;371.40;;;13.70;92.50;;;;;;5488669;26;20520;-65
2024/04/12 03:46:40;;;;;;;422.93;405.73;;;13.60;92.40;;;;;;5489011;26;20442;-65
2024/04/12 03:49:13;;;;;;;429.30;411.03;;;13.60;92.40;;;;;;5521553;26;21417;-65
2024/04/12 03:51:46;;;;;;;442.50;423.60;;;13.60;92.40;;;;;;5524978;25;20862;-64
2024/04/12 03:54:17;;;;;;;455.87;435.37;;;13.70;92.50;;;;;;5525389;25;20521;-65
2024/04/12 03:56:44;;;;;;;465.47;443.97;;;13.60;95.90;;;;;;5525502;25;20460;-64
2024/04/12 03:59:12;;;;;;;480.33;457.33;;;13.50;99.00;;;;;;5525407;25;20542;-65
2024/04/12 04:01:44;;;;;;;471.30;447.60;;;13.50;99.00;;;;;;5525260;25;20503;-65
2024/04/12 04:04:17;;;;;;;454.60;432.70;;;13.50;99.10;;;;;;5507344;25;20458;-65
2024/04/12 04:06:54;;;;;;;467.90;444.83;;;13.40;99.00;;;;;;5515363;26;20520;-65
2024/04/12 04:09:20;;;;;;;475.07;451.50;;;13.50;99.40;;;;;;5525567;25;20460;-64
2024/04/12 04:11:49;;;;;;;475.53;452.00;;;13.50;99.30;;;;;;5525044;25;20511;-65
2024/04/12 04:14:19;;;;;;;479.37;454.20;;;13.50;99.90;;;;;;5505852;25;20470;-65
2024/04/12 04:16:49;;;;;;;473.20;448.70;;;13.50;99.90;;;;;;5500855;25;20453;-65
2024/04/12 04:19:17;;;;;;;473.77;448.87;;;13.40;99.90;;;;;;5525457;25;20596;-65
2024/04/12 04:21:48;;;;;;;494.97;468.00;;;13.40;99.90;;;;;;5524990;25;20531;-65
2024/04/12 04:24:14;;;;;;;491.57;464.57;;;13.40;99.90;;;;;;5506059;25;20514;-65
2024/04/12 04:26:44;;;;;;;499.70;469.90;;;13.40;99.90;;;;;;5487002;26;21122;-64
2024/04/12 04:29:09;;;;;;;494.50;465.80;;;13.40;99.90;;;;;;5488343;26;20548;-65
2024/04/12 04:31:49;;;;;;;488.07;459.77;;;13.40;99.90;;;;;;5487478;26;20462;-65
2024/04/12 04:34:17;;;;;;;488.40;459.57;;;13.40;99.90;;;;;;5507914;26;20472;-65
2024/04/12 04:36:49;;;;;;;484.13;455.13;;;13.40;99.90;;;;;;5510032;25;20508;-65
2024/04/12 04:39:15;;;;;;;494.67;465.27;;;13.40;99.90;;;;;;5525099;25;20523;-64
2024/04/12 04:41:49;;;;;;;496.33;465.00;;;13.40;99.90;;;;;;5524537;25;20461;-65
2024/04/12 04:44:16;;;;;;;494.83;464.50;;;13.40;99.90;;;;;;5524389;25;20472;-63
2024/04/12 04:46:47;;;;;;;494.97;464.17;;;13.40;99.90;;;;;;5525079;25;20445;-65
2024/04/12 04:49:13;;;;;;;498.30;466.67;;;13.40;99.90;;;;;;5525086;25;20492;-64
2024/04/12 04:51:41;;;;;;;499.10;468.10;;;13.40;99.90;;;;;;5524312;25;20449;-65
2024/04/12 04:54:11;;;;;;;498.87;468.17;;;13.40;99.90;;;;;;5522184;25;20472;-65
2024/04/12 04:56:41;;;;;;;494.80;463.90;;;13.40;99.90;;;;;;5497453;26;20448;-65
2024/04/12 04:59:08;;;;;;;508.17;477.23;;;13.40;99.90;;;;;;5524653;25;21021;-65
2024/04/12 05:01:36;;;;;;;478.73;448.43;;;13.40;99.90;;;;;;5523690;25;20452;-65
2024/04/12 05:04:03;;;;;;;468.97;439.93;;;13.40;99.90;;;;;;5493965;25;20470;-64
2024/04/12 05:06:33;;;;;;;480.30;451.27;;;13.40;99.90;;;;;;5524417;25;20541;-64
2024/04/12 05:09:00;;;;;;;473.27;444.07;;;13.40;99.90;;;;;;5524177;25;20784;-65
2024/04/12 05:11:31;;;;;;;481.40;450.90;;;13.40;99.90;;;;;;5523690;25;20531;-65
2024/04/12 05:13:58;;;;;;;468.63;439.97;;;13.40;99.90;;;;;;5508979;25;20461;-65
2024/04/12 05:16:26;;;;;;;490.23;459.60;;;13.40;99.90;;;;;;5502259;26;20867;-63
2024/04/12 05:18:53;;;;;;;474.33;445.37;;;13.40;99.90;;;;;;5511214;25;20504;-65
2024/04/12 05:21:23;;;;;;;470.73;441.67;;;13.40;99.90;;;;;;5507767;25;20579;-65
2024/04/12 05:23:51;;;;;;;468.50;439.63;;;13.40;99.90;;;;;;5492440;26;20458;-65
2024/04/12 05:26:20;;;;;;;462.97;435.17;;;13.40;99.90;;;;;;5487400;26;21004;-65
2024/04/12 05:28:49;;;;;;;470.57;441.30;;;13.40;99.90;;;;;;5518169;26;20488;-64
2024/04/12 05:31:19;;;;;;;467.30;437.47;;;13.40;99.90;;;;;;5518758;25;20472;-65
2024/04/12 05:33:49;;;;;;;464.07;434.57;;;13.40;99.90;;;;;;5487075;26;20908;-65
2024/04/12 05:36:16;;;;;;;453.90;424.67;;;13.40;99.90;;;;;;5505085;25;20562;-65
2024/04/12 05:38:47;;;;;;;462.07;433.77;;;13.60;99.90;;;;;;5513893;25;20461;-65
2024/04/12 05:41:15;;;;;;;449.77;422.07;;;13.50;99.90;;;;;;5490333;26;20839;-65
2024/04/12 05:43:43;;;;;;;454.60;427.33;;;13.50;99.90;;;;;;5490691;26;20873;-65
2024/04/12 05:46:12;;;;;;;456.17;429.07;;;13.60;99.90;;;;;;5490684;26;20593;-65
2024/04/12 05:48:40;;;;;;;454.27;427.47;;;13.60;99.90;;;;;;5500631;26;20456;-65
2024/04/12 05:51:09;;;;;;;450.77;425.07;;;13.60;99.90;;;;;;5526621;25;20593;-65
2024/04/12 05:53:37;;;;;;;452.43;427.43;;;13.60;99.90;;;;;;5527267;25;20520;-64
2024/04/12 05:56:21;;;;;;;440.70;417.13;;;13.70;99.90;;;;;;5512055;25;20457;-67
2024/04/12 05:58:50;;;;;;;439.13;416.33;;;13.70;99.90;;;;;;5527459;25;20464;-66
2024/04/12 06:01:19;;;;;;;434.90;412.53;;;13.80;99.90;;;;;;5527142;25;20464;-65
2024/04/12 06:03:48;;;;;;;439.87;417.07;;;13.80;99.90;;;;;;5527740;25;20523;-65
2024/04/12 06:06:15;;;;;;;424.63;403.63;;;13.80;99.90;;;;;;5527470;25;20523;-64
2024/04/12 06:08:45;;;;;;;443.43;420.87;;;13.80;99.90;;;;;;5527224;25;20452;-65
2024/04/12 06:11:13;;;;;;;428.70;407.67;;;13.90;99.90;;;;;;5511680;25;20504;-65
2024/04/12 06:13:43;;;;;;;412.87;393.77;;;13.90;99.90;;;;;;5526665;26;20531;-65
2024/04/12 06:16:09;;;;;;;421.77;402.17;;;13.90;99.90;;;;;;5526907;25;20535;-65
2024/04/12 06:18:40;;;;;;;406.03;386.97;;;13.90;99.90;;;;;;5512360;25;20577;-65
2024/04/12 06:21:10;;;;;;;417.40;398.27;;;14.00;99.90;;;;;;5523469;26;20223;-65
2024/04/12 06:23:39;;;;;;;419.60;401.10;;;14.00;99.90;;;;;;5526666;25;21030;-65
2024/04/12 06:26:04;;;;;;;409.47;391.53;;;14.10;99.90;;;;;;5509827;25;20521;-64
2024/04/12 06:28:36;;;;;;;414.87;396.20;;;14.10;99.90;;;;;;5513607;26;20797;-65
2024/04/12 06:31:02;;;;;;;395.13;377.77;;;14.30;99.90;;;;;;5510555;26;20905;-65
2024/04/12 06:33:31;;;;;;;381.40;365.27;;;14.30;99.90;;;;;;5508670;26;20478;-65
2024/04/12 06:36:04;;;;;;;380.30;364.17;;;14.30;99.90;;;;;;5521803;26;20560;-65
2024/04/12 06:38:34;;;;;;;395.90;379.00;;;14.40;99.90;;;;;;5504017;26;20509;-64
2024/04/12 06:41:01;;;;;;;365.83;350.50;;;14.50;99.90;;;;;;5505804;26;20528;-65
2024/04/12 06:43:33;;;;;;;356.27;341.40;;;14.60;99.90;;;;;;5525365;25;20528;-65
2024/04/12 06:46:00;;;;;;;355.77;340.47;;;14.70;99.90;;;;;;5525564;25;20509;-65
2024/04/12 06:48:29;;;;;;;339.80;325.70;;;14.70;99.60;;;;;;5525124;25;21109;-65
2024/04/12 06:50:55;;;;;;;344.27;329.93;;;14.80;99.60;;;;;;5524497;25;20880;-65
2024/04/12 06:53:26;;;;;;;303.27;290.83;;;14.80;99.60;;;;;;5509591;25;20464;-65
2024/04/12 06:55:55;;;;;;;269.87;259.37;;;15.00;99.20;;;;;;5525716;25;20468;-65
2024/04/12 06:58:25;;;;;;;201.30;194.00;;;15.10;96.50;;;;;;5525031;25;20520;-65
2024/04/12 07:00:53;;;;;;;199.23;192.17;;;15.10;93.10;;;;;;5524835;25;20457;-65
2024/04/12 07:03:22;;;;;;;198.60;191.30;;;15.10;93.10;;;;;;5525688;25;20461;-65
2024/04/12 07:05:48;;;;;;;148.43;142.67;;;15.20;93.10;;;;;;5525214;25;20505;-65
2024/04/12 07:08:17;;;;;;;139.37;134.33;;;15.20;93.10;;;;;;5510364;25;20927;-63
2024/04/12 07:10:48;;;;;;;122.83;117.93;;;15.40;93.20;;;;;;5512138;25;20796;-65
2024/04/12 07:13:21;;;;;;;117.37;112.37;;;15.30;93.10;;;;;;5522776;26;20516;-65
2024/04/12 07:15:48;;;;;;;90.17;86.17;;;15.30;93.10;;;;;;5523186;25;20418;-65
2024/04/12 07:18:22;;;;;;;145.57;139.88;;;15.30;91.00;;;;;;5516827;25;20352;-64
2024/04/12 07:20:48;;;;;;;81.70;78.40;;;15.30;92.70;;;;;;5513416;26;20235;-65
2024/04/12 07:23:18;;;;;;;57.80;54.93;;;15.40;89.60;;;;;;5523996;25;20461;-65
2024/04/12 07:25:46;;;;;;;75.83;72.53;;;15.40;89.10;;;;;;5512606;25;20449;-65
2024/04/12 07:28:16;;;;;;;78.87;75.27;;;15.70;89.90;;;;;;5506318;26;20543;-65
2024/04/12 07:30:44;;;;;;;54.03;51.17;;;16.00;82.40;;;;;;5524410;25;20569;-65
2024/04/12 07:33:14;;;;;;;36.53;34.03;;;16.30;82.70;;;;;;5525055;25;20468;-65
2024/04/12 07:35:44;;;;;;;26.30;24.63;;;16.50;82.70;;;;;;5525097;25;20448;-65
2024/04/12 07:38:12;;;;;;;15.73;14.43;;;16.60;75.10;;;;;;5524027;25;20881;-65
2024/04/12 07:40:42;;;;;;;15.97;14.30;;;16.60;73.10;;;;;;5515069;25;20450;-65
2024/04/12 07:43:13;;;;;;;15.07;13.60;;;16.60;75.00;;;;;;5488663;26;20485;-65
2024/04/12 07:45:40;;;;;;;19.60;18.10;;;16.60;73.10;;;;;;5488754;26;20587;-65
2024/04/12 07:48:23;;;;;;;14.97;13.40;;;16.60;79.50;;;;;;5489007;26;20566;-65
2024/04/12 07:50:54;;;;;;;19.40;17.70;;;16.40;75.00;;;;;;5488332;26;20799;-65
2024/04/12 07:53:30;;;;;;;20.10;18.30;;;16.40;75.80;;;;;;5488018;26;20529;-65
2024/04/12 07:55:58;;;;;;;22.07;20.27;;;16.40;74.90;;;;;;5518742;26;20448;-65
2024/04/12 07:58:34;;;;;;;24.30;22.70;;;16.60;75.10;;;;;;5504163;26;20573;-65
2024/04/12 08:01:09;;;;;;;15.10;13.80;;;16.80;75.20;;;;;;5488405;26;20567;-66
2024/04/12 08:03:41;;;;;;;18.47;12.80;;;16.80;67.30;;;;;;5488626;26;20899;-65
2024/04/12 08:06:18;;;;;;;11.07;9.97;;;16.80;72.10;;;;;;5504248;26;20456;-65
2024/04/12 08:09:03;;;;;;;11.63;8.40;;;16.80;67.30;;;;;;5523657;25;20463;-65
2024/04/12 08:11:33;;;;;;;10.63;9.30;;;16.70;67.10;;;;;;5509764;26;20456;-65
2024/04/12 08:14:19;;;;;;;12.60;8.93;;;16.80;67.40;;;;;;5524899;25;20460;-65
2024/04/12 08:16:46;;;;;;;11.20;8.60;;;16.90;67.30;;;;;;5515880;26;20461;-65
2024/04/12 08:19:21;;;;;;;10.17;7.17;;;16.90;67.30;;;;;;5525444;25;20508;-64
2024/04/12 08:21:48;;;;;;;11.20;9.00;;;16.80;67.20;;;;;;5497687;25;20514;-65
2024/04/12 08:24:22;;;;;;;10.33;7.60;;;16.70;67.10;;;;;;5488291;26;20547;-65
2024/04/12 08:26:48;;;;;;;11.20;8.40;;;16.60;68.50;;;;;;5516255;26;20460;-65
2024/04/12 08:29:23;;;;;;;12.43;11.33;;;16.60;69.90;;;;;;5509510;25;20472;-65
2024/04/12 08:31:49;;;;;;;11.50;10.17;;;16.60;74.70;;;;;;5524821;25;20794;-65
2024/04/12 08:34:20;;;;;;;12.30;10.83;;;16.90;69.00;;;;;;5494410;25;21068;-65
2024/04/12 08:36:49;;;;;;;9.67;8.47;;;17.00;67.40;;;;;;5525090;25;20508;-66
2024/04/12 08:39:29;;;;;;;12.60;7.53;;;17.10;67.50;;;;;;5524172;25;21062;-65
2024/04/12 08:41:59;;;;;;;11.33;8.03;;;17.30;67.60;;;;;;5508751;25;20516;-65
2024/04/12 08:44:35;;;;;;;14.20;8.40;;;17.20;67.50;;;;;;5510109;26;21070;-65
2024/04/12 08:47:15;;;;;;;9.20;7.10;;;17.40;67.70;;;;;;5525390;25;20460;-65
2024/04/12 08:49:48;;;;;;;17.17;7.57;;;17.50;67.80;;;;;;5514058;25;20513;-65
2024/04/12 08:52:24;;;;;;;11.47;6.53;;;17.60;67.90;;;;;;5522178;26;20930;-65
2024/04/12 08:54:54;;;;;;;9.50;6.40;;;17.80;67.70;;;;;;5524831;25;20820;-65
2024/04/12 08:57:21;;;;;;;12.83;6.40;;;18.00;68.20;;;;;;5524624;25;20515;-66
2024/04/12 08:59:53;;;;;;;11.00;5.20;;;18.00;60.10;;;;;;5524625;25;20934;-65
2024/04/12 09:02:21;;;;;;;12.17;5.37;;;18.40;60.40;;;;;;5492700;25;20508;-65
2024/04/12 09:04:52;;;;;;;10.67;5.50;;;18.50;60.40;;;;;;5523582;25;21055;-66
2024/04/12 09:07:20;;;;;;;13.20;5.20;;;18.60;52.80;;;;;;5522106;25;20856;-66
2024/04/12 09:09:55;;;;;;;10.10;6.03;;;18.50;51.90;;;;;;5523296;25;20547;-65
2024/04/12 09:12:24;;;;;;;9.20;5.00;;;18.70;54.10;;;;;;5524171;25;20479;-66
2024/04/12 09:14:59;;;;;;;13.23;5.97;;;18.90;52.20;;;;;;5497274;25;20518;-64
2024/04/12 09:17:28;;;;;;;11.43;5.83;;;19.30;52.60;;;;;;5513198;26;20505;-65
2024/04/12 09:19:57;;;;;;;13.80;5.03;;;19.60;50.10;;;;;;5513711;25;20470;-65
2024/04/12 09:22:27;;;;;;;11.53;4.97;;;19.80;44.20;;;;;;5506511;26;20477;-65
2024/04/12 09:24:58;;;;;;;8.70;4.50;;;19.90;44.30;;;;;;5504626;26;20519;-64
2024/04/12 09:27:33;;;;;;;13.13;5.00;;;20.10;37.70;;;;;;5506207;26;20462;-65
2024/04/12 09:33:00;;;;;;;9.33;5.00;;;20.40;35.70;;;;;;5526952;26;20452;-65
2024/04/12 09:35:34;;;;;;;8.87;3.30;;;20.30;34.90;;;;;;5512226;26;20593;-65
2024/04/12 09:38:05;;;;;;;7.60;4.30;;;20.20;35.20;;;;;;5511296;25;20859;-65
2024/04/12 09:40:40;;;;;;;9.30;3.40;;;20.20;34.90;;;;;;5498410;26;20452;-66
2024/04/12 09:43:29;;;;;;;7.57;3.50;;;20.20;33.40;;;;;;5527705;25;20463;-66
2024/04/12 09:46:08;;;;;;;11.47;4.97;;;20.30;27.30;;;;;;5512256;25;20469;-65
2024/04/12 10:38:46;;;;;;;7.33;2.70;;;22.00;13.70;;;;;;5519480;26;20512;-66
2024/04/12 10:41:16;;;;;;;12.60;4.60;;;21.90;13.60;;;;;;5511381;25;21008;-70
2024/04/12 10:43:45;;;;;;;12.60;5.87;;;21.90;14.10;;;;;;5526741;25;20468;-66
2024/04/12 10:46:11;;;;;;;7.60;2.90;;;21.90;15.10;;;;;;5526758;25;20464;-65
2024/04/12 10:48:41;;;;;;;12.23;5.20;;;21.90;13.60;;;;;;5526644;25;20460;-64
2024/04/12 10:51:14;;;;;;;10.30;4.67;;;22.00;13.60;;;;;;5525932;25;20584;-66
2024/04/12 10:53:46;;;;;;;7.30;3.07;;;21.90;13.60;;;;;;5500660;25;20454;-66
2024/04/12 10:56:18;;;;;;;7.20;3.70;;;21.80;13.50;;;;;;5489752;26;20462;-66
2024/04/12 10:58:51;;;;;;;8.20;4.60;;;22.00;13.70;;;;;;5489601;26;20462;-66
2024/04/12 11:01:18;;;;;;;6.07;2.97;;;22.20;13.80;;;;;;5508976;26;20449;-65
2024/04/12 11:03:56;;;;;;;7.63;2.20;;;22.10;12.80;;;;;;5524275;25;20460;-66
2024/04/12 11:06:31;;;;;;;8.87;2.27;;;21.90;13.60;;;;;;5502628;25;20453;-66
2024/04/12 11:09:03;;;;;;;7.20;2.10;;;21.70;13.50;;;;;;5487395;26;20509;-66
2024/04/12 11:11:32;;;;;;;6.60;2.17;;;21.80;13.50;;;;;;5502497;26;20469;-66
2024/04/12 11:14:03;;;;;;;7.03;2.00;;;22.10;13.70;;;;;;5519107;26;20536;-66
2024/04/12 11:33:05;;;;;;;8.33;4.67;;;24.00;1.30;;;;;;5523170;26;20529;-67
2024/04/12 11:35:34;;;;;;;5.73;2.10;;;24.10;1.00;;;;;;5517843;25;20461;-67
2024/04/12 11:38:12;;;;;;;7.03;2.17;;;24.00;1.00;;;;;;5489519;26;20482;-68
2024/04/12 11:40:40;;;;;;;5.73;1.67;;;23.70;1.00;;;;;;5525407;25;20527;-68
2024/04/12 11:43:08;;;;;;;8.23;1.73;;;23.00;1.00;;;;;;5524882;25;21121;-66
2024/04/12 11:45:37;;;;;;;5.20;1.73;;;22.50;1.00;;;;;;5515215;25;20506;-65
2024/04/12 11:48:14;;;;;;;6.23;1.43;;;22.20;1.00;;;;;;5520446;26;20456;-66
2024/04/12 11:50:43;;;;;;;6.67;2.13;;;22.50;5.30;;;;;;5525301;25;20460;-66
2024/04/12 11:53:12;;;;;;;8.47;3.33;;;22.80;3.80;;;;;;5525357;25;20544;-66
2024/04/12 11:55:42;;;;;;;5.37;1.83;;;23.00;1.00;;;;;;5525868;25;21006;-66
2024/04/12 11:58:08;;;;;;;9.40;2.20;;;23.10;1.00;;;;;;5525610;25;20460;-68
2024/04/12 12:00:40;;;;;;;5.03;1.63;;;23.00;1.00;;;;;;5524578;25;20493;-68
2024/04/12 12:03:06;;;;;;;7.13;1.87;;;23.10;1.00;;;;;;5523616;25;20464;-68
2024/04/12 12:05:37;;;;;;;14.77;2.80;;;23.00;1.00;;;;;;5488178;26;20462;-68
2024/04/12 12:08:05;;;;;;;4.70;1.40;;;23.30;1.00;;;;;;5486904;26;20516;-68
2024/04/12 12:10:37;;;;;;;5.83;2.00;;;23.80;1.00;;;;;;5486855;26;20834;-67
2024/04/12 12:13:03;;;;;;;6.07;1.40;;;23.80;1.00;;;;;;5488253;26;20524;-68
2024/04/12 12:15:32;;;;;;;6.10;1.30;;;24.30;1.00;;;;;;5488833;26;20513;-67
2024/04/12 12:17:58;;;;;;;5.70;1.50;;;24.60;1.00;;;;;;5518704;26;20566;-68
2024/04/12 12:20:30;;;;;;;6.50;1.60;;;25.40;1.00;;;;;;5509429;26;20464;-68
2024/04/12 12:22:56;;;;;;;21.97;1.97;;;25.90;1.00;;;;;;5525214;25;20856;-68
2024/04/12 12:25:26;;;;;;;7.80;1.87;;;26.20;1.00;;;;;;5494818;25;20545;-68
2024/04/12 12:27:56;;;;;;;6.70;1.50;;;26.20;1.00;;;;;;5525214;25;20456;-68
2024/04/12 12:30:25;;;;;;;6.67;1.80;;;26.40;1.00;;;;;;5509483;25;20457;-68
2024/04/12 12:32:52;;;;;;;6.23;1.70;;;26.40;1.00;;;;;;5495919;25;20573;-66
2024/04/12 12:35:22;;;;;;;5.53;1.33;;;26.40;1.00;;;;;;5493191;26;20835;-68
2024/04/12 12:37:48;;;;;;;7.10;1.60;;;26.40;1.00;;;;;;5525012;25;20457;-67
2024/04/12 12:40:18;;;;;;;6.10;1.80;;;27.10;1.00;;;;;;5524525;25;20820;-67
2024/04/12 12:42:46;;;;;;;6.00;1.40;;;28.10;1.00;;;;;;5524934;25;20460;-67
2024/04/12 12:45:19;;;;;;;7.67;1.87;;;27.90;1.00;;;;;;5490919;25;20470;-66
2024/04/12 12:47:45;;;;;;;7.53;1.73;;;27.70;1.00;;;;;;5513986;26;20465;-68
2024/04/12 12:50:19;;;;;;;7.10;1.80;;;28.30;1.00;;;;;;5490128;25;20789;-67
2024/04/12 12:52:49;;;;;;;8.20;2.03;;;27.60;1.00;;;;;;5499732;26;20747;-67
2024/04/12 12:55:21;;;;;;;7.50;1.80;;;27.70;1.00;;;;;;5524783;25;20464;-66
2024/04/12 12:57:47;;;;;;;7.20;1.70;;;26.90;1.00;;;;;;5513393;25;20450;-68
2024/04/12 13:00:22;;;;;;;9.48;2.10;;;26.70;1.00;;;;;;5486268;26;20399;-68
2024/04/12 13:02:50;;;;;;;8.53;2.87;;;27.20;1.00;;;;;;5499470;26;20251;-69
2024/04/12 13:05:19;;;;;;;5.47;1.90;;;27.20;1.00;;;;;;5523206;25;20456;-68
2024/04/12 13:07:48;;;;;;;5.30;1.80;;;27.40;1.00;;;;;;5523353;25;20504;-69
2024/04/12 13:10:19;;;;;;;6.60;2.17;;;27.40;1.00;;;;;;5526989;25;20452;-67
2024/04/12 13:12:51;;;;;;;7.43;2.20;;;27.30;1.00;;;;;;5515547;25;20510;-67
2024/04/12 13:15:22;;;;;;;5.50;1.43;;;26.10;1.00;;;;;;5524019;26;20472;-68
2024/04/12 13:17:49;;;;;;;11.40;3.50;;;25.90;1.00;;;;;;5525627;25;20581;-68
2024/04/12 13:20:21;;;;;;;6.73;2.87;;;26.00;1.00;;;;;;5526065;25;20460;-68
2024/04/12 13:22:47;;;;;;;10.93;3.77;;;25.90;1.00;;;;;;5525302;25;20452;-67
2024/04/12 13:25:16;;;;;;;6.17;1.80;;;25.50;1.00;;;;;;5525531;25;20999;-68
2024/04/12 13:27:46;;;;;;;7.30;2.10;;;25.80;1.00;;;;;;5526730;25;20517;-68
2024/04/12 13:30:17;;;;;;;6.37;2.20;;;26.10;1.00;;;;;;5506352;25;20457;-67
2024/04/12 13:32:48;;;;;;;6.60;2.70;;;25.90;1.00;;;;;;5491772;26;20880;-68
2024/04/12 13:35:17;;;;;;;6.60;1.97;;;26.70;1.00;;;;;;5495105;26;20826;-67
2024/04/12 13:37:43;;;;;;;7.10;1.80;;;26.90;1.00;;;;;;5515433;26;20879;-66
2024/04/12 13:40:17;;;;;;;7.07;1.90;;;27.00;1.00;;;;;;5525402;25;20578;-67
2024/04/12 13:42:45;;;;;;;7.80;3.33;;;27.50;1.00;;;;;;5499039;25;20999;-68
2024/04/12 13:50:58;;;;;;;10.30;2.33;;;25.40;1.00;;;;;;5517245;26;21062;-69
2024/04/12 13:53:32;;;;;;;6.63;2.10;;;24.30;1.00;;;;;;5502537;26;20461;-68
2024/04/12 13:56:19;;;;;;;8.77;2.73;;;23.40;1.00;;;;;;5503115;26;20464;-67
2024/04/12 13:58:52;;;;;;;10.07;2.97;;;22.80;1.00;;;;;;5514954;26;20517;-68